Bond, CO (80423)

9:59 AM MDT on July 28, 2016 (GMT -0600)
Old Park | | Change Station

Elev 8625 ft 40.14 °N, 106.53 °W | Updated 13 minutes ago

Clear
Clear
61.4 °F
Feels Like 61.4 °F
N
0.0
Wind Variable Wind from East
Gusts 3.0 mph

Today
High -- | Low -- °F
--% Chance of Precip.
Yesterday
High -- | Low -- °F
Precip. -- in
Pressure 30.39 in
Visibility 10.0 miles
Clouds Clear
Dew Point 42 °F
Humidity 49%
Rainfall Not available.
Snow Depth Not available.
6:02 AM 8:23 PM
Waning Crescent, 31% visible
METAR K20V 281556Z AUTO 00000KT 10SM CLR 17/M02 A3039 RMK AO2
Pressure 30.39 in
Visibility 10.0 miles
Clouds Clear
Dew Point 42 °F
Humidity 49%
Rainfall Not available.
Snow Depth Not available.
6:02 AM 8:23 PM
Waning Crescent, 31% visible
METAR K20V 281556Z AUTO 00000KT 10SM CLR 17/M02 A3039 RMK AO2

10-Day Weather Forecast

Almanac

Astronomy

Jul. 28, 2016 Rise Set
Actual Time
Civil Twilight
Nautical Twilight
Astronomical Twilight
Moon
Length of Visible Light
Length of Day
Tomorrow will be .
, % of the Moon is Illuminated

Today's Extremes

State Highs State Lows

Community

WunderPhotos

Upload Photos

1,928,140 photos uploaded!

WunderBlog® & News

Nearby

Air Quality

  Air Quality AQ Index Pollutant
Not available.

Snow Depth

Station Depth Elevation

Earthquake Activity

City Distance Mag. Time & Date
Minimum magnitude displayed is 2.5.

Coastal Water Temperatures

Place Temperature

Stations

Nearby Weather Stations

Station Location Temp. Windchill Dew Point Humidity Wind Precip. Elev Updated Type
                   

Watches & Warnings

There are currently no watches in effect.